Time;durP1;ratioP1;P1;durP2;ratioP2;P2;SDS_P1;SDS_P2;PMS_P1;PMS_P2;Temp;Humidity;BMP_temperature;BMP_pressure;BME280_temperature;BME280_humidity;BME280_pressure;Samples;Min_cycle;Max_cycle;Signal;HPM_P1;HPM_P2
2023/10/25 00:02:11;;;;;;;16.55;5.50;;;;;;;;;;10291284;28;20076;-66
2023/10/25 00:07:09;;;;;;;14.30;6.63;;;;;;;;;;10288136;28;20064;-66
2023/10/25 00:12:08;;;;;;;18.08;6.47;;;;;;;;;;10291785;28;20544;-66
2023/10/25 00:17:08;;;;;;;20.55;6.65;;;;;;;;;;10289763;28;20076;-66
2023/10/25 00:22:06;;;;;;;14.38;6.47;;;;;;;;;;10289240;28;20168;-66
2023/10/25 00:27:05;;;;;;;18.27;6.47;;;;;;;;;;10290689;28;20372;-66
2023/10/25 00:32:04;;;;;;;17.33;7.38;;;;;;;;;;10293353;28;20052;-66
2023/10/25 00:37:05;;;;;;;16.38;6.25;;;;;;;;;;10295157;28;20072;-66
2023/10/25 00:42:03;;;;;;;21.60;6.53;;;;;;;;;;10297932;28;20080;-65
2023/10/25 00:47:02;;;;;;;17.70;5.32;;;;;;;;;;10295915;28;20073;-66
2023/10/25 00:52:00;;;;;;;21.00;7.13;;;;;;;;;;10296526;28;20068;-65
2023/10/25 00:57:03;;;;;;;18.65;7.03;;;;;;;;;;10296611;28;20084;-65
2023/10/25 01:02:03;;;;;;;16.00;5.10;;;;;;;;;;10296297;28;20083;-65
2023/10/25 01:07:01;;;;;;;14.07;7.00;;;;;;;;;;10296348;28;20075;-65
2023/10/25 01:12:00;;;;;;;19.25;6.28;;;;;;;;;;10296590;28;20525;-66
2023/10/25 01:16:59;;;;;;;16.20;6.75;;;;;;;;;;10296469;28;20084;-65
2023/10/25 01:21:59;;;;;;;15.55;5.93;;;;;;;;;;10280267;28;20088;-65
2023/10/25 01:26:59;;;;;;;15.73;6.72;;;;;;;;;;10294954;28;20524;-65
2023/10/25 01:31:57;;;;;;;18.10;5.63;;;;;;;;;;10293624;28;20041;-65
2023/10/25 01:36:55;;;;;;;20.95;8.52;;;;;;;;;;10293033;28;20061;-65
2023/10/25 01:41:55;;;;;;;16.98;5.72;;;;;;;;;;10301898;28;20052;-65
2023/10/25 01:46:54;;;;;;;18.95;6.18;;;;;;;;;;10294482;28;20083;-65
2023/10/25 01:51:54;;;;;;;15.57;5.57;;;;;;;;;;10294522;28;20080;-65
2023/10/25 01:56:52;;;;;;;20.08;6.38;;;;;;;;;;10295987;28;20588;-65
2023/10/25 02:01:51;;;;;;;23.30;7.65;;;;;;;;;;10300620;28;20077;-65
2023/10/25 02:06:51;;;;;;;15.32;5.68;;;;;;;;;;10293629;28;20084;-65
2023/10/25 02:11:50;;;;;;;17.33;7.13;;;;;;;;;;10293804;28;20056;-65
2023/10/25 02:16:48;;;;;;;12.05;5.82;;;;;;;;;;10291635;28;20537;-65
2023/10/25 02:21:47;;;;;;;19.10;7.88;;;;;;;;;;10290053;28;20048;-65
2023/10/25 02:26:49;;;;;;;22.15;8.25;;;;;;;;;;10299544;28;20084;-65
2023/10/25 02:31:48;;;;;;;18.10;7.75;;;;;;;;;;10300410;28;20502;-65
2023/10/25 02:36:46;;;;;;;18.08;7.28;;;;;;;;;;10293712;28;20072;-65
2023/10/25 02:41:44;;;;;;;15.38;7.13;;;;;;;;;;10293373;28;20068;-65
2023/10/25 02:46:44;;;;;;;19.80;6.78;;;;;;;;;;10290848;28;20068;-65
2023/10/25 02:51:42;;;;;;;15.00;7.55;;;;;;;;;;10293079;28;20091;-65
2023/10/25 02:56:41;;;;;;;18.42;6.22;;;;;;;;;;10292458;28;20072;-65
2023/10/25 03:01:39;;;;;;;21.60;6.10;;;;;;;;;;10292902;28;20080;-65
2023/10/25 03:06:39;;;;;;;14.00;6.05;;;;;;;;;;10292894;28;20068;-65
2023/10/25 03:11:37;;;;;;;22.35;6.85;;;;;;;;;;10288404;28;20076;-65
2023/10/25 03:16:35;;;;;;;11.45;5.50;;;;;;;;;;10289892;28;20080;-65
2023/10/25 03:21:34;;;;;;;21.90;6.47;;;;;;;;;;10292289;28;20513;-65
2023/10/25 03:26:34;;;;;;;13.65;6.80;;;;;;;;;;10290886;28;20076;-64
2023/10/25 03:31:32;;;;;;;20.73;5.82;;;;;;;;;;10290903;28;20068;-65
2023/10/25 03:36:30;;;;;;;20.63;6.78;;;;;;;;;;10297626;28;20073;-65
2023/10/25 03:41:29;;;;;;;17.45;6.70;;;;;;;;;;10289819;28;20069;-65
2023/10/25 03:46:29;;;;;;;20.85;5.90;;;;;;;;;;10289344;28;20075;-65
2023/10/25 03:51:27;;;;;;;17.42;5.93;;;;;;;;;;10289570;28;20078;-65
2023/10/25 03:56:26;;;;;;;18.52;6.53;;;;;;;;;;10290712;28;20087;-65
2023/10/25 04:01:24;;;;;;;20.67;7.05;;;;;;;;;;10292336;28;20072;-66
2023/10/25 04:06:23;;;;;;;15.70;6.35;;;;;;;;;;10288380;28;20087;-65
2023/10/25 04:11:22;;;;;;;16.98;7.30;;;;;;;;;;10290148;28;20072;-66
2023/10/25 04:16:20;;;;;;;18.98;5.88;;;;;;;;;;10288987;28;20080;-66
2023/10/25 04:21:18;;;;;;;12.00;6.43;;;;;;;;;;10266895;28;20100;-66
2023/10/25 04:26:18;;;;;;;23.20;7.35;;;;;;;;;;10279010;28;20068;-65
2023/10/25 04:31:17;;;;;;;20.70;7.05;;;;;;;;;;10284219;28;20068;-66
2023/10/25 04:36:16;;;;;;;15.18;6.20;;;;;;;;;;10288178;28;20072;-65
2023/10/25 04:41:14;;;;;;;16.75;7.25;;;;;;;;;;10286311;28;20072;-65
2023/10/25 04:46:15;;;;;;;25.55;7.35;;;;;;;;;;10284073;28;20624;-64
2023/10/25 04:51:14;;;;;;;24.73;6.50;;;;;;;;;;10281579;28;20064;-64
2023/10/25 04:56:12;;;;;;;19.17;6.72;;;;;;;;;;10281292;28;20432;-64
2023/10/25 05:01:14;;;;;;;21.17;7.60;;;;;;;;;;10286869;28;20098;-65
2023/10/25 05:06:13;;;;;;;18.42;6.38;;;;;;;;;;10290763;28;20077;-65
2023/10/25 05:11:14;;;;;;;21.65;6.78;;;;;;;;;;10283605;28;20475;-64
2023/10/25 05:16:13;;;;;;;15.98;5.93;;;;;;;;;;10289301;28;20099;-65
2023/10/25 05:21:17;;;;;;;15.27;7.43;;;;;;;;;;10289417;28;20076;-64
2023/10/25 05:26:23;;;;;;;18.23;5.93;;;;;;;;;;10289585;28;20080;-73
2023/10/25 05:31:27;;;;;;;17.02;6.70;;;;;;;;;;10295908;28;20072;-64
2023/10/25 05:36:27;;;;;;;17.70;6.47;;;;;;;;;;10287423;28;20094;-64
2023/10/25 05:41:27;;;;;;;21.63;6.47;;;;;;;;;;10285500;28;20107;-65
2023/10/25 05:46:25;;;;;;;12.30;5.68;;;;;;;;;;10287585;28;20064;-65
2023/10/25 05:51:24;;;;;;;23.83;8.55;;;;;;;;;;10294415;28;20110;-65
2023/10/25 05:56:26;;;;;;;25.38;12.15;;;;;;;;;;10293563;28;20069;-66
2023/10/25 06:01:27;;;;;;;23.02;9.77;;;;;;;;;;10293576;28;20069;-65
2023/10/25 06:06:27;;;;;;;26.05;7.65;;;;;;;;;;10295030;28;20072;-65
2023/10/25 06:11:27;;;;;;;15.10;6.65;;;;;;;;;;10295441;28;20068;-66
2023/10/25 06:16:25;;;;;;;19.55;6.70;;;;;;;;;;10294257;28;20087;-65
2023/10/25 06:21:25;;;;;;;16.00;6.80;;;;;;;;;;10295024;28;20072;-65
2023/10/25 06:26:24;;;;;;;16.23;5.97;;;;;;;;;;10291816;28;20069;-65
2023/10/25 06:31:23;;;;;;;16.60;5.97;;;;;;;;;;10292622;28;20076;-65
2023/10/25 06:36:22;;;;;;;15.32;6.60;;;;;;;;;;10287075;28;20076;-65
2023/10/25 06:41:22;;;;;;;14.25;5.68;;;;;;;;;;10282492;28;20482;-65
2023/10/25 06:46:21;;;;;;;24.75;7.10;;;;;;;;;;10280412;28;20064;-65
2023/10/25 06:51:22;;;;;;;16.88;6.15;;;;;;;;;;10278172;28;20072;-65
2023/10/25 06:56:20;;;;;;;19.27;6.70;;;;;;;;;;10270142;28;20079;-65
2023/10/25 07:01:20;;;;;;;19.63;6.53;;;;;;;;;;10282924;28;20135;-65
2023/10/25 07:06:19;;;;;;;13.93;7.05;;;;;;;;;;10288114;28;20079;-66
2023/10/25 07:11:19;;;;;;;25.23;8.68;;;;;;;;;;10286175;28;20072;-65
2023/10/25 07:16:21;;;;;;;20.75;8.65;;;;;;;;;;10289562;28;20084;-65
2023/10/25 07:21:19;;;;;;;26.00;8.00;;;;;;;;;;10292303;28;20516;-65
2023/10/25 07:26:19;;;;;;;19.83;7.18;;;;;;;;;;10292087;28;20084;-65
2023/10/25 07:31:18;;;;;;;20.05;7.78;;;;;;;;;;10289718;28;20091;-65
2023/10/25 07:36:16;;;;;;;19.23;8.10;;;;;;;;;;10288240;28;20068;-65
2023/10/25 07:41:14;;;;;;;23.08;7.82;;;;;;;;;;10290614;28;20088;-65
2023/10/25 07:46:17;;;;;;;23.13;8.32;;;;;;;;;;10289423;28;20064;-65
2023/10/25 07:51:18;;;;;;;23.70;9.77;;;;;;;;;;10291212;28;20080;-65
2023/10/25 07:56:17;;;;;;;22.02;10.98;;;;;;;;;;10289741;28;20079;-65
2023/10/25 08:01:19;;;;;;;34.35;12.25;;;;;;;;;;10290749;28;20080;-66
2023/10/25 08:06:18;;;;;;;26.20;11.13;;;;;;;;;;10291994;28;20065;-66
2023/10/25 08:11:19;;;;;;;23.23;9.07;;;;;;;;;;10291503;28;20080;-65
2023/10/25 08:16:17;;;;;;;22.42;8.30;;;;;;;;;;10288010;28;20091;-64
2023/10/25 08:21:17;;;;;;;22.38;9.32;;;;;;;;;;10288674;28;20072;-64
2023/10/25 08:26:18;;;;;;;31.42;8.52;;;;;;;;;;10290229;28;20076;-65
2023/10/25 08:31:18;;;;;;;19.02;7.53;;;;;;;;;;10288440;28;20543;-65
2023/10/25 08:36:18;;;;;;;23.23;8.55;;;;;;;;;;10290011;28;20079;-66
2023/10/25 08:41:17;;;;;;;20.17;9.32;;;;;;;;;;10288406;28;20079;-65
2023/10/25 08:46:16;;;;;;;22.58;7.47;;;;;;;;;;10287084;28;20071;-65
2023/10/25 08:51:15;;;;;;;23.52;6.53;;;;;;;;;;10288297;28;20065;-65
2023/10/25 08:56:14;;;;;;;24.63;7.40;;;;;;;;;;10297334;28;20099;-66
2023/10/25 09:01:13;;;;;;;23.13;6.80;;;;;;;;;;10304543;28;20080;-65
2023/10/25 09:06:12;;;;;;;20.05;6.70;;;;;;;;;;10298333;28;20127;-66
2023/10/25 09:11:10;;;;;;;17.83;6.43;;;;;;;;;;10296640;28;20076;-65
2023/10/25 09:16:19;;;;;;;21.50;6.10;;;;;;;;;;10293320;28;20087;-65
2023/10/25 09:21:25;;;;;;;17.00;6.55;;;;;;;;;;10293656;28;20072;-65
2023/10/25 09:26:24;;;;;;;13.00;5.15;;;;;;;;;;10297529;28;20055;-65
2023/10/25 09:31:25;;;;;;;23.67;6.00;;;;;;;;;;10294210;28;20068;-65
2023/10/25 09:36:24;;;;;;;24.73;6.95;;;;;;;;;;10294942;28;20075;-66
2023/10/25 09:41:26;;;;;;;17.52;6.22;;;;;;;;;;10291676;28;20073;-64
2023/10/25 09:46:31;;;;;;;20.45;6.53;;;;;;;;;;10294577;28;20065;-66
2023/10/25 09:51:34;;;;;;;13.50;7.00;;;;;;;;;;10275446;28;20055;-65
2023/10/25 09:56:36;;;;;;;18.20;5.85;;;;;;;;;;10294829;28;20477;-65
2023/10/25 10:01:38;;;;;;;24.55;8.10;;;;;;;;;;10295280;28;20091;-65
2023/10/25 10:06:41;;;;;;;25.35;7.20;;;;;;;;;;10294938;28;20449;-65
2023/10/25 10:11:46;;;;;;;23.87;7.27;;;;;;;;;;10291511;28;20079;-65
2023/10/25 10:16:46;;;;;;;32.70;7.38;;;;;;;;;;10293862;28;20350;-65
2023/10/25 10:22:01;;;;;;;24.33;6.82;;;;;;;;;;10294754;28;20076;-64
2023/10/25 10:27:00;;;;;;;37.85;8.38;;;;;;;;;;10293201;28;20076;-64
2023/10/25 10:32:00;;;;;;;29.65;8.50;;;;;;;;;;10295331;28;20072;-65
2023/10/25 10:37:05;;;;;;;38.00;6.90;;;;;;;;;;10290691;28;20402;-64
2023/10/25 10:42:04;;;;;;;26.63;6.70;;;;;;;;;;10291130;28;20487;-65
2023/10/25 10:47:05;;;;;;;28.50;8.27;;;;;;;;;;10292899;28;20469;-65
2023/10/25 10:52:05;;;;;;;41.35;6.57;;;;;;;;;;10289692;28;20102;-65
2023/10/25 10:57:05;;;;;;;23.90;6.90;;;;;;;;;;10293401;28;20084;-65
2023/10/25 11:02:05;;;;;;;32.17;8.13;;;;;;;;;;10293550;28;20085;-65
2023/10/25 11:07:03;;;;;;;37.83;8.27;;;;;;;;;;10292380;28;20079;-65
2023/10/25 11:12:05;;;;;;;21.05;5.82;;;;;;;;;;10293166;28;20080;-66
2023/10/25 11:17:04;;;;;;;27.13;6.90;;;;;;;;;;10288633;28;20080;-65
2023/10/25 11:22:03;;;;;;;17.48;6.75;;;;;;;;;;10289264;28;20071;-65
2023/10/25 11:27:01;;;;;;;27.00;7.97;;;;;;;;;;10291163;28;20071;-66
2023/10/25 11:32:01;;;;;;;22.50;5.88;;;;;;;;;;10291726;28;20077;-64
2023/10/25 11:37:04;;;;;;;26.20;7.00;;;;;;;;;;10291405;28;20169;-65
2023/10/25 11:42:02;;;;;;;26.00;7.15;;;;;;;;;;10292127;28;20073;-65
2023/10/25 11:47:02;;;;;;;26.85;6.78;;;;;;;;;;10288790;28;20056;-65
2023/10/25 11:52:00;;;;;;;27.48;7.47;;;;;;;;;;10288308;28;20083;-65
2023/10/25 11:56:59;;;;;;;22.30;7.25;;;;;;;;;;10292517;28;20497;-65
2023/10/25 12:01:58;;;;;;;30.73;7.22;;;;;;;;;;10289643;28;20110;-64
2023/10/25 12:06:56;;;;;;;31.63;7.32;;;;;;;;;;10290950;28;20079;-65
2023/10/25 12:11:54;;;;;;;29.17;6.32;;;;;;;;;;10289060;28;20075;-65
2023/10/25 12:16:54;;;;;;;23.25;6.35;;;;;;;;;;10290105;28;20111;-65
2023/10/25 12:21:55;;;;;;;28.65;5.57;;;;;;;;;;10291249;28;20091;-64
2023/10/25 12:26:54;;;;;;;25.58;5.88;;;;;;;;;;10292812;28;20069;-65
2023/10/25 12:31:54;;;;;;;35.00;5.57;;;;;;;;;;10299199;28;20087;-66
2023/10/25 12:36:52;;;;;;;25.83;6.85;;;;;;;;;;10298726;28;20698;-65
2023/10/25 12:41:51;;;;;;;24.35;4.70;;;;;;;;;;10295622;28;20082;-65
2023/10/25 12:46:50;;;;;;;20.48;5.00;;;;;;;;;;10297294;28;20056;-64
2023/10/25 12:51:50;;;;;;;27.40;4.53;;;;;;;;;;10298089;28;20073;-66
2023/10/25 12:56:48;;;;;;;23.80;4.70;;;;;;;;;;10297830;28;20065;-65
2023/10/25 13:01:50;;;;;;;19.23;5.32;;;;;;;;;;10296806;28;20107;-65
2023/10/25 13:06:50;;;;;;;;;;;;;;;;;;10295071;28;20071;-65
2023/10/25 13:11:52;;;;;;;23.70;4.95;;;;;;;;;;10295243;28;19960;-65
2023/10/25 13:16:51;;;;;;;16.00;4.32;;;;;;;;;;10295538;28;20084;-65
2023/10/25 13:21:56;;;;;;;19.23;4.18;;;;;;;;;;10294624;28;20753;-66
2023/10/25 13:26:56;;;;;;;16.75;5.25;;;;;;;;;;10294401;28;20068;-65
2023/10/25 13:31:54;;;;;;;12.60;3.90;;;;;;;;;;10295460;28;20065;-65
2023/10/25 13:36:52;;;;;;;16.13;4.00;;;;;;;;;;10294028;28;20044;-65
2023/10/25 13:41:51;;;;;;;22.42;4.82;;;;;;;;;;10295384;28;20279;-65
2023/10/25 13:46:51;;;;;;;18.20;3.78;;;;;;;;;;10295007;28;20052;-65
2023/10/25 13:51:50;;;;;;;15.50;3.88;;;;;;;;;;10293830;28;20087;-66
2023/10/25 13:56:48;;;;;;;12.32;4.15;;;;;;;;;;10295623;28;20963;-66
2023/10/25 14:01:46;;;;;;;17.00;4.47;;;;;;;;;;10294454;28;20072;-64
2023/10/25 14:06:46;;;;;;;10.90;2.83;;;;;;;;;;10294530;28;20068;-65
2023/10/25 14:11:46;;;;;;;15.93;3.38;;;;;;;;;;10295584;28;20498;-65
2023/10/25 14:16:45;;;;;;;10.10;2.83;;;;;;;;;;10293128;28;20084;-65
2023/10/25 14:21:44;;;;;;;22.75;3.85;;;;;;;;;;10291856;28;20083;-64
2023/10/25 14:26:43;;;;;;;8.07;3.08;;;;;;;;;;10294183;28;20079;-65
2023/10/25 14:31:42;;;;;;;18.60;3.78;;;;;;;;;;10293490;28;20076;-65
2023/10/25 14:36:41;;;;;;;14.48;3.65;;;;;;;;;;10293771;28;20553;-64
2023/10/25 14:41:39;;;;;;;13.10;2.88;;;;;;;;;;10293334;28;20080;-65
2023/10/25 14:46:39;;;;;;;13.50;3.25;;;;;;;;;;10290056;28;20044;-64
2023/10/25 14:51:37;;;;;;;9.15;3.08;;;;;;;;;;10294217;28;20065;-64
2023/10/25 14:56:35;;;;;;;17.42;4.10;;;;;;;;;;10291335;28;20045;-65
2023/10/25 15:01:35;;;;;;;15.45;3.22;;;;;;;;;;10291149;28;20524;-65
2023/10/25 15:06:35;;;;;;;11.18;3.13;;;;;;;;;;10290600;28;20536;-65
2023/10/25 15:11:33;;;;;;;8.63;2.63;;;;;;;;;;10283959;28;20067;-66
2023/10/25 15:16:33;;;;;;;13.52;3.58;;;;;;;;;;10288310;28;20489;-64
2023/10/25 15:21:31;;;;;;;9.45;2.70;;;;;;;;;;10288018;28;20513;-65
2023/10/25 15:26:31;;;;;;;10.77;3.03;;;;;;;;;;10288611;28;20178;-64
2023/10/25 15:31:29;;;;;;;11.88;3.97;;;;;;;;;;10277682;28;20075;-65
2023/10/25 15:36:28;;;;;;;8.32;3.88;;;;;;;;;;10273193;28;20072;-65
2023/10/25 15:41:26;;;;;;;9.95;2.70;;;;;;;;;;10274752;28;20084;-64
2023/10/25 15:46:27;;;;;;;12.77;4.10;;;;;;;;;;10288001;28;20075;-64
2023/10/25 15:51:26;;;;;;;9.80;2.80;;;;;;;;;;10287578;28;20069;-65
2023/10/25 15:56:24;;;;;;;8.02;3.35;;;;;;;;;;10274687;28;20521;-65
2023/10/25 16:01:22;;;;;;;4.60;2.55;;;;;;;;;;10283554;28;20079;-65
2023/10/25 16:06:32;;;;;;;10.05;4.07;;;;;;;;;;10281764;28;20080;-65
2023/10/25 16:11:35;;;;;;;9.75;4.35;;;;;;;;;;10273964;28;20088;-64
2023/10/25 16:16:34;;;;;;;12.20;3.65;;;;;;;;;;10275315;28;20080;-65
2023/10/25 16:21:34;;;;;;;10.32;2.72;;;;;;;;;;10277393;28;20135;-66
2023/10/25 16:26:32;;;;;;;12.95;3.47;;;;;;;;;;10286669;28;20482;-65
2023/10/25 16:31:31;;;;;;;11.68;2.80;;;;;;;;;;10254077;28;20538;-65
2023/10/25 16:36:29;;;;;;;7.72;3.45;;;;;;;;;;10274127;28;20060;-66
2023/10/25 16:41:29;;;;;;;10.75;4.10;;;;;;;;;;10266446;28;20075;-65
2023/10/25 16:46:27;;;;;;;8.13;4.55;;;;;;;;;;10280084;28;20080;-65
2023/10/25 16:51:26;;;;;;;13.18;5.97;;;;;;;;;;10282079;28;20072;-65
2023/10/25 16:56:24;;;;;;;22.00;7.22;;;;;;;;;;10264872;28;20075;-65
2023/10/25 17:01:26;;;;;;;11.52;6.15;;;;;;;;;;10278836;28;20075;-65
2023/10/25 17:06:24;;;;;;;15.57;5.00;;;;;;;;;;10278039;28;20565;-65
2023/10/25 17:11:25;;;;;;;13.77;4.43;;;;;;;;;;10284577;28;20081;-65
2023/10/25 17:16:25;;;;;;;13.43;4.10;;;;;;;;;;10287541;28;20470;-66
2023/10/25 17:21:23;;;;;;;19.52;9.20;;;;;;;;;;10267554;28;20080;-65
2023/10/25 17:26:22;;;;;;;15.05;4.95;;;;;;;;;;10286877;28;20528;-65
2023/10/25 17:31:20;;;;;;;10.95;5.85;;;;;;;;;;10294318;28;20461;-65
2023/10/25 17:36:20;;;;;;;13.55;4.35;;;;;;;;;;10290359;28;20549;-65
2023/10/25 17:41:19;;;;;;;21.15;5.65;;;;;;;;;;10290067;28;20061;-66
2023/10/25 17:46:17;;;;;;;13.70;4.45;;;;;;;;;;10278720;28;20069;-65
2023/10/25 17:51:15;;;;;;;14.43;5.93;;;;;;;;;;10279738;28;20083;-66
2023/10/25 17:56:20;;;;;;;7.72;3.92;;;;;;;;;;10283548;28;20073;-66
2023/10/25 18:01:19;;;;;;;10.77;6.05;;;;;;;;;;10290570;28;20076;-65
2023/10/25 18:06:17;;;;;;;10.15;3.90;;;;;;;;;;10291743;28;20069;-66
2023/10/25 18:11:19;;;;;;;8.23;3.70;;;;;;;;;;10276647;28;20195;-65
2023/10/25 18:16:17;;;;;;;8.57;3.35;;;;;;;;;;10283703;28;20079;-66
2023/10/25 18:21:16;;;;;;;16.35;3.80;;;;;;;;;;10287593;28;20067;-66
2023/10/25 18:26:14;;;;;;;6.65;2.97;;;;;;;;;;10279020;28;20103;-66
2023/10/25 18:31:15;;;;;;;14.00;4.20;;;;;;;;;;10277641;28;20064;-65
2023/10/25 18:36:33;;;;;;;8.15;3.78;;;;;;;;;;10279782;28;20106;-65
2023/10/25 18:41:32;;;;;;;8.13;3.05;;;;;;;;;;10284637;28;20076;-65
2023/10/25 18:46:31;;;;;;;6.28;3.30;;;;;;;;;;10273448;28;20072;-65
2023/10/25 18:51:30;;;;;;;9.95;3.47;;;;;;;;;;10292147;28;20064;-65
2023/10/25 18:56:28;;;;;;;9.27;3.30;;;;;;;;;;10287490;28;20061;-65
2023/10/25 19:01:26;;;;;;;6.38;3.45;;;;;;;;;;10283098;28;20076;-65
2023/10/25 19:06:26;;;;;;;8.38;3.40;;;;;;;;;;10288261;28;20499;-64
2023/10/25 19:11:35;;;;;;;8.18;2.92;;;;;;;;;;10288617;28;20497;-65
2023/10/25 19:16:33;;;;;;;4.90;2.70;;;;;;;;;;10291367;28;20079;-65
2023/10/25 19:21:33;;;;;;;7.32;3.17;;;;;;;;;;10282331;28;20064;-66
2023/10/25 19:26:33;;;;;;;7.30;2.45;;;;;;;;;;10276875;28;20064;-65
2023/10/25 19:31:45;;;;;;;7.97;2.72;;;;;;;;;;10272496;28;20068;-66
2023/10/25 19:36:45;;;;;;;8.52;3.20;;;;;;;;;;10272736;28;20091;-66
2023/10/25 19:41:44;;;;;;;5.78;3.30;;;;;;;;;;10287206;28;20068;-66
2023/10/25 19:46:43;;;;;;;7.50;2.35;;;;;;;;;;10286640;28;20075;-65
2023/10/25 19:51:43;;;;;;;4.38;2.60;;;;;;;;;;10285731;28;20111;-65
2023/10/25 19:56:43;;;;;;;6.75;2.40;;;;;;;;;;10290092;28;20072;-65
2023/10/25 20:01:41;;;;;;;6.18;2.92;;;;;;;;;;10292039;28;20072;-65
2023/10/25 20:06:39;;;;;;;5.85;3.40;;;;;;;;;;10288473;28;20075;-65
2023/10/25 20:11:38;;;;;;;10.15;3.30;;;;;;;;;;10287850;28;20068;-66
2023/10/25 20:16:38;;;;;;;11.05;4.15;;;;;;;;;;10285379;28;20199;-65
2023/10/25 20:21:37;;;;;;;8.30;2.92;;;;;;;;;;10287086;28;20048;-65
2023/10/25 20:26:36;;;;;;;12.07;3.47;;;;;;;;;;10290815;28;20139;-65
2023/10/25 20:31:34;;;;;;;11.57;3.55;;;;;;;;;;10289973;28;20076;-66
2023/10/25 20:36:34;;;;;;;7.53;2.75;;;;;;;;;;10289123;28;20072;-65
2023/10/25 20:41:32;;;;;;;12.05;2.65;;;;;;;;;;10289564;28;20073;-66
2023/10/25 20:46:30;;;;;;;12.88;3.70;;;;;;;;;;10290925;28;20064;-65
2023/10/25 20:51:29;;;;;;;15.55;4.20;;;;;;;;;;10298348;28;20064;-65
2023/10/25 20:56:28;;;;;;;14.68;4.55;;;;;;;;;;10296534;28;20075;-65
2023/10/25 21:01:27;;;;;;;6.68;2.80;;;;;;;;;;10298574;28;20490;-65
2023/10/25 21:06:26;;;;;;;10.35;3.28;;;;;;;;;;10297312;28;20458;-66
2023/10/25 21:11:24;;;;;;;7.43;3.60;;;;;;;;;;10296227;28;20079;-64
2023/10/25 21:16:24;;;;;;;13.55;3.08;;;;;;;;;;10297275;28;20549;-65
2023/10/25 21:21:22;;;;;;;11.18;3.45;;;;;;;;;;10296145;28;20075;-65
2023/10/25 21:26:20;;;;;;;10.98;3.20;;;;;;;;;;10296862;28;20072;-65
2023/10/25 21:31:19;;;;;;;10.50;3.05;;;;;;;;;;10295401;28;20080;-65
2023/10/25 21:36:18;;;;;;;7.32;2.70;;;;;;;;;;10295926;28;20060;-65
2023/10/25 21:41:16;;;;;;;6.53;2.95;;;;;;;;;;10296566;28;20088;-65
2023/10/25 21:46:15;;;;;;;9.32;3.65;;;;;;;;;;10295017;28;20521;-64
2023/10/25 21:51:13;;;;;;;8.63;3.03;;;;;;;;;;10297081;28;20182;-65
2023/10/25 21:56:13;;;;;;;8.02;3.35;;;;;;;;;;10293294;28;20077;-65
2023/10/25 22:01:22;;;;;;;14.90;3.60;;;;;;;;;;10293040;28;20489;-66
2023/10/25 22:06:20;;;;;;;7.53;3.80;;;;;;;;;;10294013;28;20544;-65
2023/10/25 22:11:20;;;;;;;13.43;5.18;;;;;;;;;;10295565;28;20076;-66
2023/10/25 22:16:18;;;;;;;19.02;4.65;;;;;;;;;;10292514;28;20084;-65
2023/10/25 22:21:16;;;;;;;20.67;4.97;;;;;;;;;;10282784;28;20067;-65
2023/10/25 22:26:15;;;;;;;20.15;5.57;;;;;;;;;;10291543;28;20084;-65
2023/10/25 22:31:14;;;;;;;15.43;5.55;;;;;;;;;;10293808;28;20064;-65
2023/10/25 22:36:13;;;;;;;22.45;5.38;;;;;;;;;;10292977;28;20129;-65
2023/10/25 22:41:14;;;;;;;20.92;6.60;;;;;;;;;;10293158;28;20068;-65
2023/10/25 22:46:14;;;;;;;16.48;6.10;;;;;;;;;;10294302;28;20083;-65
2023/10/25 22:51:13;;;;;;;23.45;5.43;;;;;;;;;;10293314;28;20096;-65
2023/10/25 22:56:12;;;;;;;21.95;6.40;;;;;;;;;;10293885;28;20065;-65
2023/10/25 23:01:12;;;;;;;17.15;6.45;;;;;;;;;;10291863;28;20099;-65
2023/10/25 23:06:15;;;;;;;28.63;6.90;;;;;;;;;;10290431;28;20082;-65
2023/10/25 23:11:13;;;;;;;15.45;6.10;;;;;;;;;;10289480;28;20077;-65
2023/10/25 23:16:12;;;;;;;19.05;6.28;;;;;;;;;;10290353;28;20110;-65
2023/10/25 23:21:11;;;;;;;23.38;7.18;;;;;;;;;;10292262;28;20075;-65
2023/10/25 23:26:10;;;;;;;19.67;6.22;;;;;;;;;;10292404;28;20071;-65
2023/10/25 23:31:10;;;;;;;16.60;6.55;;;;;;;;;;10290439;28;20107;-65
2023/10/25 23:36:10;;;;;;;19.33;5.60;;;;;;;;;;10291896;28;20064;-64
2023/10/25 23:41:10;;;;;;;20.13;6.05;;;;;;;;;;10289463;28;20068;-65
2023/10/25 23:46:08;;;;;;;25.15;6.60;;;;;;;;;;10290232;28;20080;-65
2023/10/25 23:51:06;;;;;;;17.35;6.35;;;;;;;;;;10291263;28;20084;-65
2023/10/25 23:56:05;;;;;;;23.92;6.78;;;;;;;;;;10292654;28;20077;-65
